AirNav   Bose ProFlight Series 2 Headset
 
 1086 users online  

IN30 Hull Airport
Patoka, Indiana, USA

GOING TO PATOKA?


FAA INFORMATION EFFECTIVE 02 JANUARY 2020

Location

FAA Identifier: IN30
Lat/Long: 38-24-08.1660N 087-35-58.0840W
38-24.136100N 087-35.968067W
38.4022683,-87.5994678
(estimated)
Elevation: 423 ft. / 129 m (estimated)
Variation: 00W (1985)
From city: 1 mile W of PATOKA, IN
Time zone: UTC -6 (UTC -5 during Daylight Saving Time)
Zip code: 47666

Airport Operations

Airport use: Private use. Permission required prior to landing
Activation date: 03/1966
Control tower: no
ARTCC: INDIANAPOLIS CENTER
FSS: TERRE HAUTE FLIGHT SERVICE STATION
Attendance: UNATNDD
Wind indicator: yes
Segmented circle: no

Airport Communications

UNICOM: 122.8
WX AWOS-3 at AJG (14 nm NW): 134.900 (618-948-2184)

Nearby radio navigation aids

VOR radial/distance  VOR name  Freq  Var
SAMr099/23.4SAMSVILLE VOR/DME116.6003E
PXVr012/29.5POCKET CITY VORTAC113.3003E

 
NDB name  Hdg/Dist  Freq  Var  ID
OLNEY128/32.927203WOLY --- .-.. -.--
PALESTINE180/36.839103WPLX .--. .-.. -..-
WAYNE COUNTY089/38.125701WFWC ..-. .-- -.-.

Airport Services

Airframe service: NONE
Powerplant service: NONE

Runway Information

Runway 18/36

Dimensions: 2917 x 100 ft. / 889 x 30 m
Surface: turf, in fair condition
Runway edge markings: RY 18/36 EDGES MKD WITH YELLOW TIRES. THLDS MKD WITH RED & YELLOW ALUMINUM.
RUNWAY 18  RUNWAY 36
Latitude: 38-24.349667N38-23.917000N
Longitude: 087-35.966667W087-35.966667W
Elevation: 420.0 ft.410.0 ft.
Traffic pattern: leftleft
Displaced threshold: 288 ft.670 ft.
Obstructions: 12 ft. road, 300 ft. from runway
APCH RATIO 19:1TO DSPLCD THR.
10 ft. road, 40 ft. right of centerline
15:1 TO DSPLCD THLD DUE TO 62 FT TREES 330 FT S OF RY END, 100 FT W OF CNTRLN.

Airport Ownership and Management from official FAA records

Ownership: Privately-owned
Owner: JOHN HULL
2118 W. 350 N
PATOKA, IN 47666
Phone 812-779-2084
Manager: EMILY LEON
2118 W. 350 N
PATOKA, IN 47666
Phone 812-779-2803

Airport Operational Statistics

Aircraft based on the field: 1
Single engine airplanes: 1
    
Aircraft operations: avg 44/month *
71% transient general aviation
29% local general aviation
* for 12-month period ending 19 June 1995

Additional Remarks

ROAD RUNS PARALLEL TO RY ON E SIDE.
PVT PHONE AVBL AT FIRST HOUSE NW OR PUBLIC PHONE AVBL AT NE GAS STATION.
FOR CD CTC EVANSVILLE APCH AT 812-436-4690, WHEN APCH CLSD CTC INDIANAPOLIS ARTCC AT 317-247-2411.

Instrument Procedures

There are no published instrument procedures at IN30.

Some nearby airports with instrument procedures:

KAJG - Mount Carmel Municipal Airport (14 nm NW)
KLWV - Lawrenceville-Vincennes International Airport (22 nm N)
KEVV - Evansville Regional Airport (22 nm S)
KDCY - Daviess County Airport (28 nm NE)
KCUL - Carmi Municipal Airport (31 nm SW)
 
Loc | Ops | Rwys | IFR | FBO | Links
Com | Nav | Svcs | Stats | Notes
Area around IN30 (Hull Airport)
 
Road maps at: MapQuest Bing Google
 
Aerial photo
No photo
 
Sectional chart

 
Airport distance calculator
Flying to Hull Airport? Find the distance to fly.

From to IN30

Sunrise and sunset
Times for 29-Jan-2020
 Local
(UTC-6)
 Zulu
(UTC)
Morning civil twilight06:3112:31
Sunrise06:5912:59
Sunset17:0823:08
Evening civil twilight17:3623:36

Current date and time
Zulu (UTC)  29-Jan-2020 12:33:51
Local (UTC-6)  29-Jan-2020 06:33:51
 
METAR
KAJG 
14nm NW 
291215Z AUTO 10SM OVC020 00/M02 A3013 RMK AO2 T00001021
KEVV 
21nm S 
291154Z 04005KT 9SM BKN021 OVC065 00/M03 A3012 RMK AO2 SLP204 T00001028 10000 20000 51003
KLWV 
22nm N 
291153Z AUTO 04004KT 10SM OVC022 01/M02 A3014 RMK AO2 SLP209 T00061017 10006 20006 53004
KI19 
25nm SE 
291215Z AUTO 00000KT 5SM BR OVC026 00/M01 A3016 RMK AO2 T10041011
TAF
KEVV 
21nm S 
291147Z 2912/3012 05004KT 6SM BR VCSH OVC017 FM291900 02004KT P6SM VCSH OVC013 FM300300 36004KT 6SM BR BKN013 FM301100 VRB03KT 5SM BR BKN024
NOTAMs
Click for the latest NOTAMs
NOTAMs are issued by the DoD/FAA and will open in a separate window not controlled by AirNav.

 

 
 

Would you like to see your business listed on this page?

 If your business provides an interesting product or service to pilots, flight crews, aircraft, or users of the Hull Airport, you should consider listing it here.  To start the listing process, click on the button below
 
Add a business
 

Other Pages about Hull Airport

Update a link
 
Copyright © AirNav, LLC. All rights reserved. Privacy Policy  Contact